createdAt,value
2022-11-27T00:00:19.258Z,3.05
2022-11-27T00:05:19.945Z,3.22
2022-11-27T00:10:20.758Z,2.97
2022-11-27T00:15:21.891Z,2.88
2022-11-27T00:20:26.072Z,2.82
2022-11-27T00:25:29.714Z,2.73
2022-11-27T00:30:30.474Z,2.80
2022-11-27T00:35:31.189Z,2.89
2022-11-27T00:40:31.960Z,2.87
2022-11-27T00:45:32.741Z,2.95
2022-11-27T00:50:33.508Z,3.03
2022-11-27T00:55:34.450Z,2.88
2022-11-27T01:00:35.178Z,3.04
2022-11-27T01:05:36.638Z,3.02
2022-11-27T01:10:38.890Z,2.83
2022-11-27T01:15:39.740Z,2.83
2022-11-27T01:20:40.489Z,3.02
2022-11-27T01:25:41.689Z,2.99
2022-11-27T01:30:42.396Z,3.08
2022-11-27T01:35:51.799Z,2.95
2022-11-27T01:40:57.977Z,2.90
2022-11-27T01:45:58.985Z,2.85
2022-11-27T01:50:59.784Z,2.97
2022-11-27T01:56:01.235Z,3.18
2022-11-27T02:01:03.127Z,3.11
2022-11-27T02:06:04.077Z,2.99
2022-11-27T02:11:18.320Z,3.11
2022-11-27T02:16:43.500Z,3.12
2022-11-27T02:21:57.716Z,3.04
2022-11-27T02:30:10.004Z,3.11
2022-11-27T02:35:29.453Z,3.15
2022-11-27T02:41:08.602Z,3.08
2022-11-27T02:46:12.213Z,3.14
2022-11-27T02:51:16.670Z,3.22
2022-11-27T02:56:21.584Z,3.12
2022-11-27T03:01:23.886Z,3.11
2022-11-27T03:06:31.280Z,3.20
2022-11-27T03:11:32.243Z,3.23
2022-11-27T03:17:00.811Z,3.38
2022-11-27T03:22:03.660Z,3.26
2022-11-27T03:27:04.950Z,3.42
2022-11-27T03:32:06.671Z,3.36
2022-11-27T03:37:07.680Z,3.29
2022-11-27T03:42:25.292Z,3.09
2022-11-27T03:48:21.621Z,3.31
2022-11-27T03:53:55.240Z,3.08
2022-11-27T03:59:01.794Z,3.16
2022-11-27T04:04:02.699Z,3.26
2022-11-27T04:09:04.555Z,3.24
2022-11-27T04:14:05.400Z,3.22
2022-11-27T04:19:07.411Z,3.09
2022-11-27T04:24:08.133Z,3.11
2022-11-27T04:29:08.956Z,2.97
2022-11-27T04:34:10.114Z,3.03
2022-11-27T04:39:12.569Z,3.06
2022-11-27T04:44:13.375Z,3.11
2022-11-27T04:49:14.352Z,2.98
2022-11-27T04:54:15.206Z,3.10
2022-11-27T04:59:16.022Z,3.04
2022-11-27T05:04:16.978Z,2.98
2022-11-27T05:09:17.946Z,3.16
2022-11-27T05:14:19.943Z,2.91
2022-11-27T05:19:23.075Z,2.91
2022-11-27T05:24:27.001Z,2.74
2022-11-27T05:29:28.848Z,2.88
2022-11-27T05:34:29.774Z,2.99
2022-11-27T05:39:30.520Z,2.95
2022-11-27T05:44:31.276Z,3.06
2022-11-27T05:49:32.046Z,2.87
2022-11-27T05:54:32.795Z,2.90
2022-11-27T05:59:33.558Z,2.95
2022-11-27T06:04:34.441Z,3.02
2022-11-27T06:09:37.180Z,3.14
2022-11-27T06:14:38.230Z,3.08
2022-11-27T06:19:39.138Z,2.97
2022-11-27T06:24:40.282Z,3.02
2022-11-27T06:29:41.257Z,2.96
2022-11-27T06:34:42.437Z,2.97
2022-11-27T06:39:43.577Z,2.91
2022-11-27T06:44:46.030Z,2.92
2022-11-27T06:49:46.740Z,2.74
2022-11-27T06:54:47.543Z,2.89
2022-11-27T06:59:48.308Z,2.76
2022-11-27T07:04:49.176Z,2.84
2022-11-27T07:09:49.874Z,2.73
2022-11-27T07:14:50.632Z,2.71
2022-11-27T07:19:51.334Z,2.69
2022-11-27T07:24:52.081Z,2.88
2022-11-27T07:29:52.786Z,2.73
2022-11-27T07:34:53.915Z,2.68
2022-11-27T07:40:02.480Z,2.69
2022-11-27T07:45:05.014Z,2.62
2022-11-27T07:50:09.866Z,2.62
2022-11-27T07:55:13.583Z,2.71
2022-11-27T08:00:15.357Z,2.83
2022-11-27T08:05:16.459Z,2.70
2022-11-27T08:10:17.494Z,2.65
2022-11-27T08:15:18.730Z,2.73
2022-11-27T08:20:20.044Z,2.61
2022-11-27T08:25:20.884Z,2.52
2022-11-27T08:30:22.918Z,2.33
2022-11-27T08:35:23.765Z,2.37
2022-11-27T08:40:24.954Z,2.49
2022-11-27T08:45:25.758Z,2.61
2022-11-27T08:50:26.808Z,2.36
2022-11-27T08:55:27.552Z,2.67
2022-11-27T09:00:28.535Z,2.65
2022-11-27T09:05:30.323Z,2.51
2022-11-27T09:10:31.594Z,2.53
2022-11-27T09:15:32.523Z,2.55
2022-11-27T09:20:33.252Z,2.61
2022-11-27T09:25:34.041Z,2.61
2022-11-27T09:30:34.748Z,2.49
2022-11-27T09:35:38.827Z,2.50
2022-11-27T09:41:04.730Z,2.29
2022-11-27T09:46:13.965Z,2.41
2022-11-27T09:51:25.184Z,2.47
2022-11-27T09:56:25.994Z,2.34
2022-11-27T10:01:36.594Z,2.52
2022-11-27T10:07:25.499Z,2.40
2022-11-27T10:13:02.036Z,2.53
2022-11-27T10:18:12.490Z,2.62
2022-11-27T10:23:39.034Z,2.57
2022-11-27T10:32:46.988Z,2.39
2022-11-27T10:38:16.045Z,2.65
2022-11-27T10:43:22.664Z,2.82
2022-11-27T10:48:23.821Z,2.64
2022-11-27T10:53:35.698Z,2.92
2022-11-27T10:58:45.540Z,2.78
2022-11-27T11:03:46.694Z,2.85
2022-11-27T11:08:48.769Z,2.81
2022-11-27T11:13:49.683Z,2.72
2022-11-27T11:18:53.353Z,2.97
2022-11-27T11:24:43.224Z,3.05
2022-11-27T11:29:51.686Z,3.00
2022-11-27T11:35:07.733Z,3.46
2022-11-27T11:40:26.213Z,3.30
2022-11-27T11:45:32.654Z,3.01
2022-11-27T11:51:38.353Z,3.22
2022-11-27T11:56:51.453Z,3.29
2022-11-27T12:05:26.499Z,3.35
2022-11-27T12:15:34.908Z,3.22
2022-11-27T12:21:50.685Z,3.16
2022-11-27T12:27:23.742Z,3.27
2022-11-27T12:32:51.891Z,3.23
2022-11-27T12:40:25.765Z,3.42
2022-11-27T12:46:00.863Z,3.39
2022-11-27T12:51:18.545Z,3.46
2022-11-27T12:56:38.470Z,3.35
2022-11-27T13:01:44.988Z,3.32
2022-11-27T13:07:17.497Z,3.13
2022-11-27T13:12:26.371Z,3.03
2022-11-27T13:17:36.367Z,3.01
2022-11-27T13:22:37.343Z,3.03
2022-11-27T13:27:38.764Z,3.15
2022-11-27T13:32:47.165Z,3.22
2022-11-27T13:37:55.703Z,3.03
2022-11-27T13:43:11.725Z,3.08
2022-11-27T13:48:34.702Z,3.08
2022-11-27T13:53:39.722Z,2.91
2022-11-27T13:58:42.852Z,2.90
2022-11-27T14:03:44.807Z,2.91
2022-11-27T14:09:04.116Z,2.90
2022-11-27T14:14:21.735Z,2.92
2022-11-27T14:19:33.533Z,2.91
2022-11-27T14:24:41.250Z,2.81
2022-11-27T14:29:44.828Z,2.93
2022-11-27T14:34:50.154Z,2.79
2022-11-27T14:39:52.309Z,2.80
2022-11-27T14:45:11.733Z,2.75
2022-11-27T14:50:14.382Z,2.69
2022-11-27T14:55:18.430Z,2.84
2022-11-27T15:00:26.837Z,2.72
2022-11-27T15:05:29.245Z,2.69
2022-11-27T15:10:39.810Z,2.68
2022-11-27T15:15:43.649Z,2.83
2022-11-27T15:20:46.731Z,2.73
2022-11-27T15:26:14.987Z,2.78
2022-11-27T15:31:37.967Z,2.87
2022-11-27T15:36:41.947Z,2.86
2022-11-27T15:41:51.279Z,2.89
2022-11-27T15:46:55.930Z,2.91
2022-11-27T15:51:57.883Z,2.94
2022-11-27T15:56:58.744Z,2.88
2022-11-27T16:02:00.349Z,2.86
2022-11-27T16:07:01.212Z,2.99
2022-11-27T16:12:02.895Z,2.87
2022-11-27T16:17:03.730Z,3.00
2022-11-27T16:22:04.592Z,3.02
2022-11-27T16:27:06.578Z,3.04
2022-11-27T16:32:07.770Z,2.95
2022-11-27T16:37:12.073Z,3.16
2022-11-27T16:42:15.186Z,3.18
2022-11-27T16:47:16.402Z,3.14
2022-11-27T16:52:17.359Z,3.25
2022-11-27T16:57:19.307Z,3.35
2022-11-27T17:02:20.693Z,3.17
2022-11-27T17:07:21.522Z,3.19
2022-11-27T17:12:22.580Z,3.30
2022-11-27T17:17:23.368Z,3.26
2022-11-27T17:22:29.530Z,3.21
2022-11-27T17:27:31.770Z,3.05
2022-11-27T17:32:32.531Z,3.12
2022-11-27T17:37:33.346Z,3.06
2022-11-27T17:42:34.088Z,3.07
2022-11-27T17:47:34.867Z,3.14
2022-11-27T17:52:36.784Z,3.13
2022-11-27T17:57:37.775Z,3.26
2022-11-27T18:02:40.130Z,3.30
2022-11-27T18:07:42.909Z,3.36
2022-11-27T18:12:44.147Z,3.33
2022-11-27T18:17:45.046Z,3.26
2022-11-27T18:22:45.865Z,3.33
2022-11-27T18:27:46.863Z,3.35
2022-11-27T18:32:47.616Z,3.34
2022-11-27T18:37:48.480Z,3.35
2022-11-27T18:42:49.239Z,3.47
2022-11-27T18:47:50.379Z,3.43
2022-11-27T18:52:51.200Z,3.27
2022-11-27T18:57:52.462Z,3.21
2022-11-27T19:02:53.780Z,3.22
2022-11-27T19:07:54.684Z,3.17
2022-11-27T19:12:55.519Z,3.19
2022-11-27T19:17:57.480Z,3.17
2022-11-27T19:22:58.321Z,3.16
2022-11-27T19:27:59.158Z,3.18
2022-11-27T19:32:59.911Z,3.07
2022-11-27T19:38:01.588Z,3.03
2022-11-27T19:43:02.465Z,3.15
2022-11-27T19:48:03.345Z,3.09
2022-11-27T19:53:04.578Z,3.11
2022-11-27T19:58:06.278Z,3.10
2022-11-27T20:03:07.045Z,2.99
2022-11-27T20:08:08.090Z,3.01
2022-11-27T20:13:08.847Z,3.03
2022-11-27T20:18:09.695Z,3.04
2022-11-27T20:23:11.651Z,3.08
2022-11-27T20:28:12.369Z,3.13
2022-11-27T20:33:16.848Z,3.20
2022-11-27T20:38:17.605Z,3.14
2022-11-27T20:43:18.636Z,3.17
2022-11-27T20:48:19.533Z,3.09
2022-11-27T20:53:20.417Z,3.11
2022-11-27T20:58:23.000Z,3.16
2022-11-27T21:03:23.814Z,3.18
2022-11-27T21:08:24.877Z,3.15
2022-11-27T21:13:25.930Z,3.09
2022-11-27T21:18:26.876Z,3.04
2022-11-27T21:23:27.713Z,3.09
2022-11-27T21:28:29.760Z,3.07
2022-11-27T21:33:30.511Z,3.05
2022-11-27T21:38:31.284Z,3.00
2022-11-27T21:43:32.021Z,2.99
2022-11-27T21:48:32.846Z,3.03
2022-11-27T21:53:33.700Z,3.07
2022-11-27T21:58:36.550Z,3.04
2022-11-27T22:03:42.311Z,3.14
2022-11-27T22:08:46.281Z,3.10
2022-11-27T22:13:47.263Z,3.18
2022-11-27T22:18:48.858Z,3.20
2022-11-27T22:23:50.260Z,3.04
2022-11-27T22:28:51.913Z,3.17
2022-11-27T22:33:53.915Z,3.14
2022-11-27T22:38:56.210Z,3.30
2022-11-27T22:43:59.482Z,3.11
2022-11-27T22:49:04.054Z,3.21
2022-11-27T22:54:06.505Z,2.98
2022-11-27T23:04:39.016Z,2.87
2022-11-27T23:09:39.978Z,3.03
2022-11-27T23:14:41.299Z,3.04
2022-11-27T23:19:42.301Z,3.07
2022-11-27T23:24:43.672Z,3.01
2022-11-27T23:29:44.794Z,2.98
2022-11-27T23:34:45.733Z,2.99
2022-11-27T23:39:46.467Z,3.00
2022-11-27T23:44:47.219Z,2.90
2022-11-27T23:49:47.961Z,2.80
2022-11-27T23:54:48.921Z,2.84
2022-11-27T23:59:49.683Z,2.97
